Pardeeville, WI (53954)

7:20 AM CST on February 28, 2015 (GMT -0600)
APRSWXNET Portage WI US | Change Station
CLOSE
Current Station
Personal Weather Station
Location: Portage, WI
Elevation: 836 ft
Nearby Weather Stations

Elev 836 ft 43.54 °N, 89.46 °W | Updated 36 minutes ago

Partly Cloudy
Partly Cloudy
-6 °F
Feels Like -6 °F
N
0
Wind Variable Wind from North
Gusts 0.0 mph

Today
High -- | Low -- °F
--% Chance of Precip.
Yesterday
High -- | Low -- °F
Precip. -- in
6:35 AM 5:44 PM
Waxing Gibbous, 77% visible
Pressure 30.61 in
Visibility 10.0 miles
Clouds Clear
Windchill -6 °F
Dew Point -10 °F
Humidity 82%
Rainfall 0.00 in
Snow Depth Not available.
UV 0 out of 12
Pollen .50 out of 12
Air Quality Not available.
Flu Activity Not available.
METAR KDLL 281250Z AUTO 00000KT 10SM CLR M19/M22 A3061 RMK AO2 T11931220

More Conditions Fewer Conditions

Pressure 30.61 in
Visibility 10.0 miles
Clouds Clear
Windchill -6 °F
Dew Point -10 °F
Humidity 82%
Rainfall 0.00 in
Snow Depth Not available.
UV 0 out of 12
Pollen .50 out of 12
Air Quality Not available.
Flu Activity Not available.
METAR KDLL 281250Z AUTO 00000KT 10SM CLR M19/M22 A3061 RMK AO2 T11931220

More Conditions Fewer Conditions

10-Day Weather Forecast

Almanac

Astronomy

Feb. 28, 2015 Rise Set
Actual Time
Civil Twilight
Nautical Twilight
Astronomical Twilight
Moon
Length of Visible Light
Length of Day
Tomorrow will be .
, % of the Moon is Illuminated

Today's Extremes

State Highs State Lows

Community

WunderPhotos

Upload Photos

1,801,010 photos uploaded!

WunderBlogs® & News

Nearby

Air Quality

  Air Quality AQ Index Pollutant
Not available.

Snow Depth

Station Depth Elevation

Earthquake Activity

City Distance Mag. Time & Date
Minimum magnitude displayed is 2.5.

Coastal Water Temperatures

Place Temperature

Nearby Weather Stations